KSHN/SHN METAR and TAF weather

Enter ICAO airport designator
Station Type Date Time Source
KSHN METAR 2020/07/10 22:53 UTC NOAA

KSHN 102253Z AUTO 22008KT 10SM CLR 21/10 A3016 RMK AO2 SLP214 T02060100


Station Type Date Time Source
KSHN Decoded METAR 2020/07/10 22:53 UTC NOAA

SHELTON SANDERSON FIELD, WA, United States (KSHN) 47-14N 123-08W 82M
Jul 10, 2020 - 06:53 PM EDT / 2020.07.10 2253 UTC
Wind: from the SW (220 degrees) at 9 MPH (8 KT):0
Visibility: 10 mile(s):0
Sky conditions: clear
Temperature: 69.1 F (20.6 C)
Dew Point: 50.0 F (10.0 C)
Relative Humidity: 50%
Pressure (altimeter): 30.16 in. Hg (1021 hPa)
ob: KSHN 102253Z AUTO 22008KT 10SM CLR 21/10 A3016 RMK AO2 SLP214 T02060100
cycle: 23

Station Type Date Time Source
KSHN TAF UTC NOAA

Error!

Example: see airport list